Time;durP1;ratioP1;P1;durP2;ratioP2;P2;SDS_P1;SDS_P2;PMS_P1;PMS_P2;Temp;Humidity;BMP_temperature;BMP_pressure;BME280_temperature;BME280_humidity;BME280_pressure;Samples;Min_cycle;Max_cycle;Signal;HPM_P1;HPM_P2
2022/05/05 00:01:42;;;;;;;;;;;;;;;17.00;42.74;100871.09;4998678;28;6976;-74
2022/05/05 00:04:09;;;;;;;;;;;;;;;16.98;42.82;100873.63;4996251;28;6816;-74
2022/05/05 00:06:36;;;;;;;;;;;;;;;16.95;42.57;100873.53;5003049;28;7324;-74
2022/05/05 00:09:04;;;;;;;;;;;;;;;16.89;42.86;100874.25;5002259;28;6795;-74
2022/05/05 00:14:24;;;;;;;;;;;;;;;16.72;43.28;100867.69;5001508;28;6900;-74
2022/05/05 00:16:57;;;;;;;;;;;;;;;16.63;43.40;100865.72;4996386;28;6808;-74
2022/05/05 00:19:24;;;;;;;;;;;;;;;16.58;43.49;100867.25;4982561;28;6989;-74
2022/05/05 00:21:50;;;;;;;;;;;;;;;16.51;43.80;100856.75;4991679;28;6831;-74
2022/05/05 00:24:18;;;;;;;;;;;;;;;16.48;43.56;100861.78;4984726;28;6871;-74
2022/05/05 00:26:45;;;;;;;;;;;;;;;16.45;43.45;100856.53;5000109;28;7034;-75
2022/05/05 00:29:11;;;;;;;;;;;;;;;16.43;44.24;100858.22;5000538;28;6812;-75
2022/05/05 00:31:36;;;;;;;;;;;;;;;16.40;43.97;100860.69;4999722;28;6795;-74
2022/05/05 00:34:02;;;;;;;;;;;;;;;16.36;44.12;100864.00;4998313;28;7206;-74
2022/05/05 00:36:28;;;;;;;;;;;;;;;16.31;44.24;100863.88;4998452;28;6816;-74
2022/05/05 00:38:54;;;;;;;;;;;;;;;16.26;43.85;100862.81;5000978;28;7067;-74
2022/05/05 00:41:21;;;;;;;;;;;;;;;16.20;44.30;100870.41;4997667;28;6807;-74
2022/05/05 00:43:47;;;;;;;;;;;;;;;16.14;43.85;100865.91;4983288;28;7124;-75
2022/05/05 00:46:12;;;;;;;;;;;;;;;16.08;44.96;100870.88;5000588;28;6896;-74
2022/05/05 00:48:38;;;;;;;;;;;;;;;16.02;44.87;100866.38;4999908;28;6882;-74
2022/05/05 00:51:04;;;;;;;;;;;;;;;15.98;45.13;100869.69;5015708;28;6795;-74
2022/05/05 00:53:29;;;;;;;;;;;;;;;15.93;44.89;100872.13;5002086;28;7333;-74
2022/05/05 00:56:01;;;;;;;;;;;;;;;15.89;45.06;100870.22;4999544;28;7001;-74
2022/05/05 00:58:28;;;;;;;;;;;;;;;15.85;44.86;100870.97;4990832;28;6816;-74
2022/05/05 01:00:55;;;;;;;;;;;;;;;15.80;45.27;100869.91;5000145;28;6799;-74
2022/05/05 01:03:23;;;;;;;;;;;;;;;15.75;45.40;100872.34;5001133;28;6823;-74
2022/05/05 01:05:49;;;;;;;;;;;;;;;15.71;45.37;100869.59;4998785;28;7044;-74
2022/05/05 01:08:15;;;;;;;;;;;;;;;15.65;45.34;100881.50;4986222;28;7164;-74
2022/05/05 01:10:41;;;;;;;;;;;;;;;15.61;46.06;100878.75;4998403;28;6788;-75
2022/05/05 01:13:06;;;;;;;;;;;;;;;15.57;45.70;100877.75;4996825;28;7078;-75
2022/05/05 01:15:36;;;;;;;;;;;;;;;15.51;45.87;100877.53;4996433;28;6779;-75
2022/05/05 01:18:01;;;;;;;;;;;;;;;15.47;46.19;100873.09;4995912;28;6982;-75
2022/05/05 01:20:27;;;;;;;;;;;;;;;15.43;45.52;100871.22;4992157;28;7108;-74
2022/05/05 01:22:52;;;;;;;;;;;;;;;15.38;46.26;100877.09;4978837;28;7986;-74
2022/05/05 01:28:14;;;;;;;;;;;;;;;15.27;46.68;100883.59;5000661;28;7074;-74
2022/05/05 01:30:45;;;;;;;;;;;;;;;15.22;46.68;100883.44;5000092;28;7435;-74
2022/05/05 01:33:19;;;;;;;;;;;;;;;15.18;46.14;100883.25;4995768;28;7586;-74
2022/05/05 01:35:48;;;;;;;;;;;;;;;15.11;46.67;100880.44;4998778;28;7034;-74
2022/05/05 01:38:18;;;;;;;;;;;;;;;15.07;46.30;100878.56;5001001;28;6832;-74
2022/05/05 01:40:46;;;;;;;;;;;;;;;15.02;47.49;100882.66;5001055;28;6808;-74
2022/05/05 01:43:14;;;;;;;;;;;;;;;14.97;46.94;100884.22;4970035;28;7080;-74
2022/05/05 01:45:40;;;;;;;;;;;;;;;14.91;47.04;100877.09;5002596;28;6816;-74
2022/05/05 01:48:06;;;;;;;;;;;;;;;14.86;46.96;100887.25;4999339;28;7207;-74
2022/05/05 01:50:32;;;;;;;;;;;;;;;14.79;48.11;100882.69;4986628;28;6836;-74
2022/05/05 01:53:00;;;;;;;;;;;;;;;14.74;48.21;100881.63;4995693;28;7136;-74
2022/05/05 01:55:30;;;;;;;;;;;;;;;14.70;47.80;100884.88;4988648;28;7247;-74
2022/05/05 01:58:00;;;;;;;;;;;;;;;14.66;47.60;100885.56;4996064;28;7393;-74
2022/05/05 02:00:27;;;;;;;;;;;;;;;14.61;48.07;100889.69;5003842;28;7908;-74
2022/05/05 02:02:53;;;;;;;;;;;;;;;14.55;48.62;100893.75;5001768;28;6982;-74
2022/05/05 02:05:19;;;;;;;;;;;;;;;14.51;48.03;100898.75;4999433;28;6803;-74
2022/05/05 02:07:47;;;;;;;;;;;;;;;14.46;47.95;100895.13;5001461;28;6808;-74
2022/05/05 02:10:16;;;;;;;;;;;;;;;14.41;48.61;100903.53;5003869;28;7162;-74
2022/05/05 02:12:45;;;;;;;;;;;;;;;14.37;48.07;100911.06;4993261;28;6916;-74
2022/05/05 02:15:14;;;;;;;;;;;;;;;14.30;48.88;100904.78;4999384;28;6800;-74
2022/05/05 02:17:42;;;;;;;;;;;;;;;14.24;48.42;100915.75;5001727;28;7173;-74
2022/05/05 02:20:11;;;;;;;;;;;;;;;14.18;48.54;100912.91;5003626;28;6815;-74
2022/05/05 02:22:39;;;;;;;;;;;;;;;14.14;48.91;100918.75;5019241;28;6820;-74
2022/05/05 02:25:05;;;;;;;;;;;;;;;14.11;49.49;100918.63;5003931;28;7182;-74
2022/05/05 02:27:43;;;;;;;;;;;;;;;14.06;49.18;100913.28;5003311;28;6804;-74
2022/05/05 02:30:10;;;;;;;;;;;;;;;14.03;49.04;100914.03;4979078;28;7501;-74
2022/05/05 02:32:36;;;;;;;;;;;;;;;14.02;49.80;100916.53;5004405;28;7079;-74
2022/05/05 02:35:02;;;;;;;;;;;;;;;13.97;49.18;100913.78;5003910;28;6792;-74
2022/05/05 02:40:27;;;;;;;;;;;;;;;13.89;49.45;100918.59;5010289;28;7209;-74
2022/05/05 02:42:55;;;;;;;;;;;;;;;13.88;50.03;100918.53;5002108;28;6804;-74
2022/05/05 02:45:22;;;;;;;;;;;;;;;13.85;49.84;100918.41;4984499;28;6982;-74
2022/05/05 02:47:49;;;;;;;;;;;;;;;13.82;50.13;100914.00;4998565;28;6804;-74
2022/05/05 02:50:16;;;;;;;;;;;;;;;13.82;49.87;100915.72;4976454;28;6804;-74
2022/05/05 02:52:42;;;;;;;;;;;;;;;13.79;50.44;100910.41;5002746;28;6868;-74
2022/05/05 02:55:08;;;;;;;;;;;;;;;13.78;50.22;100913.81;5000101;28;6826;-74
2022/05/05 02:57:35;;;;;;;;;;;;;;;13.75;50.71;100915.44;5000258;28;7395;-74
2022/05/05 03:00:03;;;;;;;;;;;;;;;13.74;50.72;100911.09;4976749;28;6812;-74
2022/05/05 03:02:29;;;;;;;;;;;;;;;13.71;50.71;100907.50;5002030;28;6804;-74
2022/05/05 03:04:54;;;;;;;;;;;;;;;13.69;49.89;100910.00;5001107;28;7922;-74
2022/05/05 03:07:22;;;;;;;;;;;;;;;13.65;50.23;100912.38;5004829;28;6946;-74
2022/05/05 03:09:48;;;;;;;;;;;;;;;13.61;50.09;100912.25;5001993;28;6803;-74
2022/05/05 03:12:13;;;;;;;;;;;;;;;13.57;49.94;100910.38;5002139;28;6840;-74
2022/05/05 03:14:39;;;;;;;;;;;;;;;13.52;50.59;100911.84;4999438;28;6847;-74
2022/05/05 03:17:05;;;;;;;;;;;;;;;13.47;49.92;100913.31;5000323;28;6954;-77
2022/05/05 03:19:31;;;;;;;;;;;;;;;13.40;50.55;100916.44;4999961;28;7007;-77
2022/05/05 03:21:57;;;;;;;;;;;;;;;13.34;51.15;100922.19;5002711;28;6871;-77
2022/05/05 03:24:23;;;;;;;;;;;;;;;13.30;51.42;100920.28;5000888;28;6815;-77
2022/05/05 03:26:48;;;;;;;;;;;;;;;13.24;50.90;100920.88;5001165;28;6791;-78
2022/05/05 03:29:14;;;;;;;;;;;;;;;13.17;51.56;100927.44;4987208;28;7329;-77
2022/05/05 03:31:40;;;;;;;;;;;;;;;13.09;51.34;100926.22;4989131;28;7899;-77
2022/05/05 03:34:06;;;;;;;;;;;;;;;13.01;51.49;100922.41;4998504;28;6886;-77
2022/05/05 03:36:33;;;;;;;;;;;;;;;12.95;51.67;100924.72;4997497;28;7113;-77
2022/05/05 03:38:59;;;;;;;;;;;;;;;12.89;50.88;100928.75;4996875;28;6808;-77
2022/05/05 03:41:25;;;;;;;;;;;;;;;12.85;51.82;100924.28;5000351;28;7211;-77
2022/05/05 03:43:54;;;;;;;;;;;;;;;12.80;51.56;100920.59;4984592;28;7238;-77
2022/05/05 03:46:19;;;;;;;;;;;;;;;12.78;51.91;100924.78;4997446;28;6902;-77
2022/05/05 03:48:45;;;;;;;;;;;;;;;12.76;51.95;100926.41;5003035;28;6870;-77
2022/05/05 03:51:11;;;;;;;;;;;;;;;12.74;51.55;100928.00;5001735;28;6879;-77
2022/05/05 03:53:37;;;;;;;;;;;;;;;12.75;51.46;100937.50;4997322;28;6796;-77
2022/05/05 03:56:04;;;;;;;;;;;;;;;12.73;52.44;100926.25;5000308;28;6983;-77
2022/05/05 03:58:31;;;;;;;;;;;;;;;12.72;51.78;100933.09;4998946;28;6803;-77
2022/05/05 04:00:57;;;;;;;;;;;;;;;12.72;52.13;100929.63;4999771;28;8379;-77
2022/05/05 04:03:31;;;;;;;;;;;;;;;12.73;52.64;100926.25;5000778;28;7039;-77
2022/05/05 04:06:04;;;;;;;;;;;;;;;12.74;51.82;100933.16;4986653;28;7027;-77
2022/05/05 04:08:31;;;;;;;;;;;;;;;12.74;52.41;100926.31;4997924;28;7856;-77
2022/05/05 04:10:57;;;;;;;;;;;;;;;12.76;52.13;100927.28;4990268;28;6812;-77
2022/05/05 04:13:25;;;;;;;;;;;;;;;12.77;52.51;100925.59;4982206;28;6800;-77
2022/05/05 04:15:51;;;;;;;;;;;;;;;12.79;51.73;100921.41;4984814;28;6819;-77
2022/05/05 04:18:17;;;;;;;;;;;;;;;12.80;52.08;100933.44;4997655;28;6812;-77
2022/05/05 04:20:43;;;;;;;;;;;;;;;12.82;52.92;100931.81;4989534;28;6807;-77
2022/05/05 04:23:10;;;;;;;;;;;;;;;12.85;51.82;100926.84;5000656;28;6784;-77
2022/05/05 04:25:41;;;;;;;;;;;;;;;12.87;52.51;100939.75;4997746;28;6880;-77
2022/05/05 04:28:12;;;;;;;;;;;;;;;12.90;52.08;100945.94;4998742;28;6808;-77
2022/05/05 04:30:40;;;;;;;;;;;;;;;12.91;52.23;100945.13;4974633;28;7510;-77
2022/05/05 04:33:07;;;;;;;;;;;;;;;12.93;52.17;100945.19;4979380;28;7011;-77
2022/05/05 04:35:36;;;;;;;;;;;;;;;12.96;52.21;100942.75;4982983;28;7289;-77
2022/05/05 04:38:02;;;;;;;;;;;;;;;13.00;52.60;100954.09;4983856;28;6872;-77
2022/05/05 04:40:28;;;;;;;;;;;;;;;13.03;52.95;100952.53;4985515;28;6800;-77
2022/05/05 04:42:54;;;;;;;;;;;;;;;13.08;53.41;100950.19;4999019;28;6879;-77
2022/05/05 04:45:19;;;;;;;;;;;;;;;13.15;53.35;100954.81;4995034;28;6832;-76
2022/05/05 04:47:45;;;;;;;;;;;;;;;13.27;53.53;100956.19;4998591;28;6867;-77
2022/05/05 04:50:11;;;;;;;;;;;;;;;13.35;53.59;100954.84;4995534;28;7045;-77
2022/05/05 04:52:36;;;;;;;;;;;;;;;13.43;53.20;100958.66;4974531;28;6962;-77
2022/05/05 04:55:02;;;;;;;;;;;;;;;13.51;52.56;100960.69;5001102;28;6791;-77
2022/05/05 04:57:28;;;;;;;;;;;;;;;13.53;52.21;100959.09;5003694;28;6875;-77
2022/05/05 04:59:54;;;;;;;;;;;;;;;13.55;52.31;100960.03;4999169;28;6980;-77
2022/05/05 05:02:19;;;;;;;;;;;;;;;13.59;52.63;100962.81;4998602;28;6875;-77
2022/05/05 05:04:45;;;;;;;;;;;;;;;13.63;52.54;100966.41;5002535;28;7101;-77
2022/05/05 05:07:11;;;;;;;;;;;;;;;13.68;53.06;100964.91;5001388;28;7127;-77
2022/05/05 05:09:36;;;;;;;;;;;;;;;13.74;53.13;100975.50;5001482;28;6848;-77
2022/05/05 05:12:02;;;;;;;;;;;;;;;13.80;53.20;100968.84;5000759;28;7585;-77
2022/05/05 05:14:28;;;;;;;;;;;;;;;13.86;52.36;100974.28;5001406;28;6788;-76
2022/05/05 05:16:54;;;;;;;;;;;;;;;13.95;52.40;100974.69;4974424;28;7153;-76
2022/05/05 05:19:20;;;;;;;;;;;;;;;14.06;52.46;100979.41;5017909;28;6811;-76
2022/05/05 05:21:46;;;;;;;;;;;;;;;14.19;52.84;100984.25;5001737;28;6792;-76
2022/05/05 05:24:13;;;;;;;;;;;;;;;14.33;52.27;100986.56;4999459;28;6807;-77
2022/05/05 05:26:39;;;;;;;;;;;;;;;14.48;52.38;100987.19;5002011;28;7278;-77
2022/05/05 05:29:05;;;;;;;;;;;;;;;14.63;52.45;100986.97;5002055;28;6899;-77
2022/05/05 05:31:30;;;;;;;;;;;;;;;14.77;52.42;100995.25;4990811;28;7160;-77
2022/05/05 05:33:56;;;;;;;;;;;;;;;14.91;51.80;100993.22;4982892;28;6951;-77
2022/05/05 05:36:23;;;;;;;;;;;;;;;15.06;52.03;100989.50;4969861;28;7214;-77
2022/05/05 05:38:48;;;;;;;;;;;;;;;15.21;51.74;100991.81;5000153;28;6859;-77
2022/05/05 05:41:14;;;;;;;;;;;;;;;15.37;51.53;100999.31;4997830;28;6819;-77
2022/05/05 05:43:39;;;;;;;;;;;;;;;15.53;51.10;100999.88;5002406;28;6811;-77
2022/05/05 05:46:05;;;;;;;;;;;;;;;15.66;51.02;100996.03;4998016;28;7907;-75
2022/05/05 05:48:31;;;;;;;;;;;;;;;15.80;51.07;100994.88;4987105;28;6859;-75
2022/05/05 05:50:56;;;;;;;;;;;;;;;15.98;51.11;101005.81;4975382;28;6836;-75
2022/05/05 05:53:22;;;;;;;;;;;;;;;16.16;50.79;101009.06;4993353;28;7492;-75
2022/05/05 05:55:48;;;;;;;;;;;;;;;16.33;50.56;101011.34;4991881;28;6847;-75
2022/05/05 05:58:14;;;;;;;;;;;;;;;16.51;50.41;101006.81;4998133;28;6890;-75
2022/05/05 06:00:40;;;;;;;;;;;;;;;16.69;49.92;101017.69;4998100;28;6779;-75
2022/05/05 06:05:50;;;;;;;;;;;;;;;16.99;49.58;101020.38;5004467;28;6904;-75
2022/05/05 06:08:16;;;;;;;;;;;;;;;17.11;49.73;101013.88;4996281;28;6800;-75
2022/05/05 06:10:42;;;;;;;;;;;;;;;17.29;49.71;101009.25;4998915;28;7015;-75
2022/05/05 06:13:08;;;;;;;;;;;;;;;17.46;49.45;101012.34;4999903;28;6875;-75
2022/05/05 06:15:34;;;;;;;;;;;;;;;17.67;49.42;101008.63;4995159;28;6788;-75
2022/05/05 06:17:59;;;;;;;;;;;;;;;17.88;49.22;101017.81;4998717;28;6938;-75
2022/05/05 06:20:25;;;;;;;;;;;;;;;18.09;48.30;101014.09;4999340;28;6831;-75
2022/05/05 06:22:51;;;;;;;;;;;;;;;18.27;47.90;101022.38;5000020;28;6866;-75
2022/05/05 06:25:23;;;;;;;;;;;;;;;18.39;47.92;101023.50;4999943;28;7397;-75
2022/05/05 06:27:49;;;;;;;;;;;;;;;18.54;47.50;101023.03;4999449;28;6808;-75
2022/05/05 06:30:16;;;;;;;;;;;;;;;18.65;47.43;101024.19;4994166;28;6800;-75
2022/05/05 06:32:45;;;;;;;;;;;;;;;18.78;47.18;101021.88;5001228;28;6887;-75
2022/05/05 06:35:12;;;;;;;;;;;;;;;18.90;46.36;101021.31;5005193;28;8102;-75
2022/05/05 06:37:38;;;;;;;;;;;;;;;18.99;46.27;101022.38;5002802;28;6800;-75
2022/05/05 06:40:05;;;;;;;;;;;;;;;19.08;46.53;101026.06;4998626;28;6819;-75
2022/05/05 06:42:31;;;;;;;;;;;;;;;19.24;45.92;101023.00;5003231;28;7220;-75
2022/05/05 06:44:57;;;;;;;;;;;;;;;19.38;45.54;101025.00;5004731;28;6803;-75
2022/05/05 06:47:24;;;;;;;;;;;;;;;19.50;44.92;101024.41;5002350;28;8280;-75
2022/05/05 06:49:49;;;;;;;;;;;;;;;19.55;45.21;101025.34;5007285;28;6962;-75
2022/05/05 06:52:15;;;;;;;;;;;;;;;19.59;45.04;101027.19;5003408;28;7892;-75
2022/05/05 06:54:41;;;;;;;;;;;;;;;19.64;44.64;101022.94;5004561;28;6886;-75
2022/05/05 06:57:06;;;;;;;;;;;;;;;19.68;44.22;101029.97;5002224;28;7104;-74
2022/05/05 06:59:32;;;;;;;;;;;;;;;19.75;44.22;101025.78;5004230;28;6792;-75
2022/05/05 07:02:02;;;;;;;;;;;;;;;19.79;44.03;101024.13;4984348;28;8480;-75
2022/05/05 07:07:19;;;;;;;;;;;;;;;19.72;43.81;101025.72;4999938;28;7274;-75
2022/05/05 07:12:32;;;;;;;;;;;;;;;19.73;43.67;101037.88;4999828;28;8308;-76
2022/05/05 07:14:58;;;;;;;;;;;;;;;19.74;43.64;101042.22;5001474;28;6800;-76
2022/05/05 07:17:25;;;;;;;;;;;;;;;19.76;44.18;101044.88;4979811;28;7235;-76
2022/05/05 07:19:52;;;;;;;;;;;;;;;19.81;43.86;101046.72;4994817;28;6816;-75
2022/05/05 07:22:18;;;;;;;;;;;;;;;19.88;44.21;101041.63;4994858;28;6803;-75
2022/05/05 07:24:44;;;;;;;;;;;;;;;19.93;43.96;101045.19;5006949;28;6784;-75
2022/05/05 07:27:13;;;;;;;;;;;;;;;19.94;43.25;101049.59;4965110;28;7151;-75
2022/05/05 07:29:39;;;;;;;;;;;;;;;19.97;43.68;101049.63;4986817;28;6800;-75
2022/05/05 07:32:05;;;;;;;;;;;;;;;19.99;43.29;101053.16;5002559;28;7162;-75
2022/05/05 07:34:31;;;;;;;;;;;;;;;20.02;43.69;101049.72;4996558;28;7019;-75
2022/05/05 07:36:57;;;;;;;;;;;;;;;20.03;43.15;101054.97;5013291;28;10207;-74
2022/05/05 07:39:23;;;;;;;;;;;;;;;20.05;43.14;101055.88;4999820;28;6787;-74
2022/05/05 07:41:49;;;;;;;;;;;;;;;20.08;42.90;101060.25;4991846;28;8816;-74
2022/05/05 07:44:15;;;;;;;;;;;;;;;20.10;42.84;101064.66;5002337;28;6780;-74
2022/05/05 07:46:42;;;;;;;;;;;;;;;20.16;42.72;101068.19;5003304;28;7222;-74
2022/05/05 07:49:08;;;;;;;;;;;;;;;20.21;42.58;101066.56;5001643;28;6962;-74
2022/05/05 07:51:34;;;;;;;;;;;;;;;20.23;42.61;101065.78;5006330;28;6804;-74
2022/05/05 07:56:45;;;;;;;;;;;;;;;20.36;42.30;101069.44;5002910;28;6998;-74
2022/05/05 07:59:12;;;;;;;;;;;;;;;20.45;41.98;101076.56;4997397;28;7013;-74
2022/05/05 08:01:38;;;;;;;;;;;;;;;20.58;42.09;101081.97;5000921;28;6854;-74
2022/05/05 08:04:05;;;;;;;;;;;;;;;20.72;42.05;101087.44;5000129;28;7139;-74
2022/05/05 08:06:31;;;;;;;;;;;;;;;20.84;41.57;101078.97;5002860;28;6791;-74
2022/05/05 08:08:58;;;;;;;;;;;;;;;20.92;41.36;101088.66;4976781;28;6822;-74
2022/05/05 08:11:23;;;;;;;;;;;;;;;21.02;41.59;101084.50;5002730;28;7864;-74
2022/05/05 08:13:49;;;;;;;;;;;;;;;21.13;41.20;101084.63;4995289;28;6819;-73
2022/05/05 08:16:16;;;;;;;;;;;;;;;21.22;40.78;101090.00;5000196;28;6815;-73
2022/05/05 08:18:43;;;;;;;;;;;;;;;21.32;40.74;101097.94;5003118;28;7855;-73
2022/05/05 08:21:11;;;;;;;;;;;;;;;21.41;40.36;101089.41;5001819;28;7880;-73
2022/05/05 08:23:38;;;;;;;;;;;;;;;21.58;40.28;101092.22;5005354;28;6808;-73
2022/05/05 08:28:49;;;;;;;;;;;;;;;21.95;40.05;101090.13;5001166;28;7921;-73
2022/05/05 08:31:16;;;;;;;;;;;;;;;22.09;39.67;101089.41;4999573;28;6816;-73
2022/05/05 08:33:42;;;;;;;;;;;;;;;22.16;39.42;101092.13;4978054;28;6808;-74
2022/05/05 08:36:08;;;;;;;;;;;;;;;22.15;38.75;101092.94;5001251;28;6795;-74
2022/05/05 08:38:34;;;;;;;;;;;;;;;22.03;38.59;101096.31;4984277;28;7213;-74
2022/05/05 08:41:02;;;;;;;;;;;;;;;21.97;38.68;101088.41;4979231;28;6831;-74
2022/05/05 08:43:28;;;;;;;;;;;;;;;21.98;38.39;101092.75;4998167;28;6816;-74
2022/05/05 08:45:58;;;;;;;;;;;;;;;22.04;38.49;101095.44;5002023;28;6811;-74
2022/05/05 08:48:24;;;;;;;;;;;;;;;22.08;37.97;101100.69;4999805;28;6875;-74
2022/05/05 08:51:00;;;;;;;;;;;;;;;22.19;38.08;101104.28;5000976;28;7334;-74
2022/05/05 08:53:35;;;;;;;;;;;;;;;22.29;38.29;101100.06;5004420;28;6891;-74
2022/05/05 08:56:04;;;;;;;;;;;;;;;22.43;37.81;101103.69;4997134;28;6820;-74
2022/05/05 08:58:31;;;;;;;;;;;;;;;22.56;37.88;101109.94;4978779;28;7166;-74
2022/05/05 09:00:57;;;;;;;;;;;;;;;22.71;37.65;101109.19;4985107;28;7121;-74
2022/05/05 09:03:24;;;;;;;;;;;;;;;22.96;37.27;101104.19;4997611;28;7161;-74
2022/05/05 09:05:53;;;;;;;;;;;;;;;23.24;36.83;101106.13;4996593;28;7196;-74
2022/05/05 09:08:34;;;;;;;;;;;;;;;23.54;36.96;101105.47;4990658;28;6800;-74
2022/05/05 09:11:06;;;;;;;;;;;;;;;23.74;36.26;101104.69;5000369;28;6812;-74
2022/05/05 09:13:36;;;;;;;;;;;;;;;23.90;36.18;101105.63;4985044;28;7027;-74
2022/05/05 09:16:05;;;;;;;;;;;;;;;24.06;36.24;101109.19;4995092;28;7033;-74
2022/05/05 09:18:33;;;;;;;;;;;;;;;24.19;36.08;101106.59;5001207;28;6808;-74
2022/05/05 09:21:04;;;;;;;;;;;;;;;24.21;35.67;101100.50;4998223;28;6804;-74
2022/05/05 09:26:28;;;;;;;;;;;;;;;24.70;35.55;101104.06;4998896;28;6900;-74
2022/05/05 09:28:56;;;;;;;;;;;;;;;24.96;35.25;101105.84;5002071;28;6882;-74
2022/05/05 09:31:22;;;;;;;;;;;;;;;25.32;35.11;101098.81;4995429;28;6815;-73
2022/05/05 09:33:48;;;;;;;;;;;;;;;25.85;34.19;101093.41;5000003;28;7271;-73
2022/05/05 09:36:24;;;;;;;;;;;;;;;26.46;33.49;101098.34;4991509;28;7074;-73
2022/05/05 09:39:04;;;;;;;;;;;;;;;26.95;33.08;101099.75;4998135;28;8151;-74
2022/05/05 09:41:33;;;;;;;;;;;;;;;27.33;32.89;101099.34;4974487;28;7245;-74
2022/05/05 09:44:13;;;;;;;;;;;;;;;27.61;32.36;101092.06;5002661;28;6899;-74
2022/05/05 09:46:40;;;;;;;;;;;;;;;27.88;31.69;101094.34;4998397;28;7443;-74
2022/05/05 09:49:15;;;;;;;;;;;;;;;27.98;31.24;101093.31;5003910;28;7174;-74
2022/05/05 09:57:42;;;;;;;;;;;;;;;28.26;31.12;101096.47;4998471;28;7012;-74
2022/05/05 10:00:52;;;;;;;;;;;;;;;28.67;31.29;101099.34;5000817;28;7687;-74
2022/05/05 10:05:58;;;;;;;;;;;;;;;29.58;29.92;101095.97;4999948;28;6953;-74
2022/05/05 10:08:45;;;;;;;;;;;;;;;30.11;29.07;101094.88;4976639;28;7286;-74
2022/05/05 10:11:15;;;;;;;;;;;;;;;30.45;28.91;101099.34;5001158;28;6812;-74
2022/05/05 10:13:43;;;;;;;;;;;;;;;30.66;28.65;101106.84;4996402;28;7032;-74
2022/05/05 10:16:09;;;;;;;;;;;;;;;30.82;28.09;101100.25;4982910;28;6804;-74
2022/05/05 10:18:40;;;;;;;;;;;;;;;31.20;27.53;101099.28;5002654;28;6800;-74
2022/05/05 10:21:09;;;;;;;;;;;;;;;31.42;26.88;101096.91;5002730;28;7084;-73
2022/05/05 10:24:15;;;;;;;;;;;;;;;31.47;26.95;101087.06;5005517;28;6811;-74
2022/05/05 10:26:41;;;;;;;;;;;;;;;30.69;27.22;101093.53;5001861;28;6811;-74
2022/05/05 10:29:40;;;;;;;;;;;;;;;29.42;28.02;101100.66;5003701;28;6899;-74
2022/05/05 10:32:21;;;;;;;;;;;;;;;28.07;28.81;101101.09;4978601;28;7068;-74
2022/05/05 10:35:20;;;;;;;;;;;;;;;27.23;29.74;101104.69;5002929;28;7844;-74
2022/05/05 10:37:46;;;;;;;;;;;;;;;27.51;30.19;101107.03;4995072;28;7235;-74
2022/05/05 10:40:11;;;;;;;;;;;;;;;28.24;29.89;101100.03;5000748;28;6803;-74
2022/05/05 10:42:46;;;;;;;;;;;;;;;29.07;29.39;101095.16;4996022;28;6784;-74
2022/05/05 10:45:27;;;;;;;;;;;;;;;30.05;28.58;101095.00;4999424;28;9831;-74
2022/05/05 10:47:58;;;;;;;;;;;;;;;31.02;28.24;101086.47;5003993;28;7085;-74
2022/05/05 10:50:52;;;;;;;;;;;;;;;31.81;26.88;101082.56;5000321;28;7618;-74
2022/05/05 10:53:33;;;;;;;;;;;;;;;31.92;26.31;101085.75;4995714;28;6861;-74
2022/05/05 10:56:03;;;;;;;;;;;;;;;31.48;25.91;101090.56;4999176;28;6824;-74
2022/05/05 10:58:57;;;;;;;;;;;;;;;30.50;26.19;101099.25;5004520;28;6890;-74
2022/05/05 11:01:24;;;;;;;;;;;;;;;29.45;26.78;101098.00;5004917;28;7362;-74
2022/05/05 11:04:17;;;;;;;;;;;;;;;28.53;27.79;101101.34;5000701;28;6951;-74
2022/05/05 11:06:48;;;;;;;;;;;;;;;27.80;28.31;101097.94;4978512;28;6983;-74
2022/05/05 11:09:30;;;;;;;;;;;;;;;27.55;28.85;101100.00;5004308;28;6997;-74
2022/05/05 11:12:22;;;;;;;;;;;;;;;28.25;28.90;101096.50;4995493;28;6792;-74
2022/05/05 11:23:27;;;;;;;;;;;;;;;30.40;26.78;101095.09;4998613;28;6903;-74
2022/05/05 11:25:54;;;;;;;;;;;;;;;29.40;26.94;101105.13;5000109;28;6916;-74
2022/05/05 11:28:22;;;;;;;;;;;;;;;28.29;27.55;101103.44;4992280;28;6989;-74
2022/05/05 11:30:47;;;;;;;;;;;;;;;27.29;28.26;101107.28;5000718;28;7155;-74
2022/05/05 11:33:13;;;;;;;;;;;;;;;26.54;29.00;101111.41;4995518;28;6812;-74
2022/05/05 11:35:39;;;;;;;;;;;;;;;26.01;29.91;101106.47;4996787;28;6863;-74
2022/05/05 11:38:17;;;;;;;;;;;;;;;25.69;30.27;101100.47;5003736;28;8098;-74
2022/05/05 11:40:42;;;;;;;;;;;;;;;25.54;30.36;101105.78;5002016;28;6828;-74
2022/05/05 11:45:56;;;;;;;;;;;;;;;26.66;30.43;101098.22;5005061;28;6888;-74
2022/05/05 11:48:21;;;;;;;;;;;;;;;27.79;29.86;101092.72;5003106;28;6837;-74
2022/05/05 11:50:47;;;;;;;;;;;;;;;28.82;29.24;101087.69;4994546;28;6780;-74
2022/05/05 11:53:20;;;;;;;;;;;;;;;29.52;28.17;101093.47;4998006;28;6780;-74
2022/05/05 11:55:52;;;;;;;;;;;;;;;29.44;27.59;101090.97;5003228;28;6992;-74
2022/05/05 12:01:36;;;;;;;;;;;;;;;28.74;27.98;101096.59;4980191;28;7324;-74
2022/05/05 12:03:58;;;;;;;;;;;;;;;26.96;28.84;101100.59;5003205;28;7328;-75
2022/05/05 12:06:25;;;;;;;;;;;;;;;26.29;29.19;101093.22;4987749;28;7074;-75
2022/05/05 12:08:51;;;;;;;;;;;;;;;25.73;29.79;101098.72;4984004;28;6996;-75
2022/05/05 12:11:17;;;;;;;;;;;;;;;25.33;29.87;101105.81;5003023;28;8194;-74
2022/05/05 12:13:43;;;;;;;;;;;;;;;25.01;30.86;101103.22;5004461;28;6887;-74
2022/05/05 12:16:10;;;;;;;;;;;;;;;24.81;31.39;101104.97;5003851;28;7268;-74
2022/05/05 12:18:53;;;;;;;;;;;;;;;24.61;30.90;101109.31;5001286;28;7046;-74
2022/05/05 12:21:23;;;;;;;;;;;;;;;24.45;31.13;101103.19;4998540;28;6792;-74
2022/05/05 12:24:01;;;;;;;;;;;;;;;24.29;31.79;101103.16;4978218;28;7430;-74
2022/05/05 12:26:36;;;;;;;;;;;;;;;24.18;31.74;101104.88;5003863;28;6862;-74
2022/05/05 12:29:13;;;;;;;;;;;;;;;24.13;32.19;101103.13;4984933;28;6820;-74
2022/05/05 12:31:40;;;;;;;;;;;;;;;24.11;32.27;101101.38;5001815;28;7026;-74
2022/05/05 12:34:06;;;;;;;;;;;;;;;24.11;31.71;101093.50;5001905;28;6993;-74
2022/05/05 12:36:32;;;;;;;;;;;;;;;24.14;31.98;101090.88;5010650;28;7062;-74
2022/05/05 12:39:12;;;;;;;;;;;;;;;24.20;32.42;101093.53;5000454;28;10020;-74
2022/05/05 12:41:55;;;;;;;;;;;;;;;24.26;32.42;101090.06;4997997;28;7098;-74
2022/05/05 12:44:20;;;;;;;;;;;;;;;24.36;32.62;101091.81;4997422;28;6828;-74
2022/05/05 12:46:52;;;;;;;;;;;;;;;24.89;33.17;101093.63;4987035;28;6886;-74
2022/05/05 12:49:39;;;;;;;;;;;;;;;26.00;32.68;101083.72;5000544;28;6946;-74
2022/05/05 12:59:36;;;;;;;;;;;;;;;27.11;30.96;101086.41;5000615;28;6804;-74
2022/05/05 13:00:23;;;;;;;;;;;;;;;30.38;28.15;101078.41;4999140;28;7976;-74
2022/05/05 13:02:48;;;;;;;;;;;;;;;31.09;27.46;101083.69;5002923;28;6951;-74
2022/05/05 13:05:15;;;;;;;;;;;;;;;31.79;26.70;101074.63;4997916;28;7212;-75
2022/05/05 13:07:41;;;;;;;;;;;;;;;32.25;26.31;101077.63;5000609;28;7267;-75
2022/05/05 13:10:07;;;;;;;;;;;;;;;32.18;25.79;101068.16;4986233;28;7288;-75
2022/05/05 13:12:33;;;;;;;;;;;;;;;31.90;25.26;101078.75;4991231;28;6796;-75
2022/05/05 13:14:58;;;;;;;;;;;;;;;31.20;25.58;101084.25;5000492;28;7206;-75
2022/05/05 13:17:24;;;;;;;;;;;;;;;30.35;25.41;101082.88;5004406;28;7022;-75
2022/05/05 13:19:50;;;;;;;;;;;;;;;29.59;26.71;101081.00;5002360;28;6957;-75
2022/05/05 13:22:15;;;;;;;;;;;;;;;28.91;26.59;101078.75;4996526;28;6796;-75
2022/05/05 13:24:41;;;;;;;;;;;;;;;28.31;27.27;101090.25;4994647;28;7409;-74
2022/05/05 13:27:07;;;;;;;;;;;;;;;27.78;27.62;101086.56;4996090;28;6844;-74
2022/05/05 13:29:32;;;;;;;;;;;;;;;27.30;28.12;101093.22;4996119;28;6808;-74
2022/05/05 13:31:58;;;;;;;;;;;;;;;26.83;28.51;101089.28;4997785;28;7132;-74
2022/05/05 13:34:25;;;;;;;;;;;;;;;26.40;28.65;101093.13;4997869;28;7030;-74
2022/05/05 13:36:51;;;;;;;;;;;;;;;26.04;28.98;101098.56;4993255;28;6938;-74
2022/05/05 13:39:17;;;;;;;;;;;;;;;25.81;29.03;101096.94;4999232;28;7339;-74
2022/05/05 13:41:43;;;;;;;;;;;;;;;25.71;29.44;101090.84;5005085;28;7876;-74
2022/05/05 13:44:09;;;;;;;;;;;;;;;25.87;29.40;101099.50;5003224;28;6799;-74
2022/05/05 13:46:38;;;;;;;;;;;;;;;26.25;29.54;101091.47;4986825;28;6792;-74
2022/05/05 13:49:06;;;;;;;;;;;;;;;26.62;29.07;101085.94;5004488;28;7230;-74